Time;durP1;ratioP1;P1;durP2;ratioP2;P2;SDS_P1;SDS_P2;PMS_P1;PMS_P2;Temp;Humidity;BMP_temperature;BMP_pressure;BME280_temperature;BME280_humidity;BME280_pressure;Samples;Min_cycle;Max_cycle;Signal;HPM_P1;HPM_P2
2021/05/08 00:00:54;;;;;;;;;;;;;;;-142.75;66.70;78639.69;5072357;22;19926;-74
2021/05/08 00:03:19;;;;;;;;;;;;;;;-142.75;66.71;78645.59;5069508;28;20005;-73
2021/05/08 00:05:46;;;;;;;;;;;;;;;-142.75;66.18;78653.47;5071271;28;19962;-72
2021/05/08 00:08:11;;;;;;;;;;;;;;;-142.75;65.91;78649.53;5072683;28;19920;-74
2021/05/08 00:10:36;;;;;;;;;;;;;;;-142.75;66.08;78663.31;5071274;28;20380;-73
2021/05/08 00:13:01;;;;;;;;;;;;;;;-142.75;66.18;78661.34;5072592;28;19924;-73
2021/05/08 00:15:27;;;;;;;;;;;;;;;-142.75;65.96;78669.25;5073378;28;19970;-74
2021/05/08 00:17:52;;;;;;;;;;;;;;;-142.75;66.00;78669.25;5072435;28;19923;-73
2021/05/08 00:20:18;;;;;;;;;;;;;;;-142.75;66.27;78661.34;5072327;28;19929;-73
2021/05/08 00:22:43;;;;;;;;;;;;;;;-142.75;66.51;78677.13;5070763;28;19916;-73
2021/05/08 00:25:09;;;;;;;;;;;;;;;-142.75;66.90;78681.06;5072434;28;19995;-73
2021/05/08 00:27:35;;;;;;;;;;;;;;;-142.75;67.13;78690.91;5072256;28;19916;-74
2021/05/08 00:30:00;;;;;;;;;;;;;;;-142.75;66.72;78696.81;5072195;28;19916;-73
2021/05/08 00:32:25;;;;;;;;;;;;;;;-142.75;67.22;78673.19;5071723;28;19923;-73
2021/05/08 00:34:50;;;;;;;;;;;;;;;-142.75;66.75;78671.22;5070919;28;19920;-73
2021/05/08 00:37:16;;;;;;;;;;;;;;;-142.75;66.88;78657.41;5072185;28;19923;-73
2021/05/08 00:39:41;;;;;;;;;;;;;;;-142.75;68.73;78614.09;5070779;28;20547;-73
2021/05/08 00:42:06;;;;;;;;;;;;;;;-142.75;68.61;78578.63;5071072;28;20378;-74
2021/05/08 00:44:31;;;;;;;;;;;;;;;-142.75;68.43;78551.06;5070833;28;19916;-73
2021/05/08 00:46:57;;;;;;;;;;;;;;;-142.75;67.66;78560.91;5072662;28;19916;-74
2021/05/08 00:49:26;;;;;;;;;;;;;;;-142.75;67.90;78539.25;5070546;28;20014;-73
2021/05/08 00:51:51;;;;;;;;;;;;;;;-142.75;66.73;78558.94;5070071;28;19938;-74
2021/05/08 00:54:16;;;;;;;;;;;;;;;-142.75;67.10;78566.81;5070752;28;19916;-72
2021/05/08 00:56:41;;;;;;;;;;;;;;;-142.75;67.13;78566.81;5070786;28;19924;-74
2021/05/08 00:59:07;;;;;;;;;;;;;;;-142.75;65.87;78594.41;5062013;28;19927;-73
2021/05/08 01:01:32;;;;;;;;;;;;;;;-142.75;65.18;78616.06;5071583;28;19923;-74
2021/05/08 01:03:57;;;;;;;;;;;;;;;-142.75;65.37;78639.69;5062695;28;19970;-73
2021/05/08 01:06:22;;;;;;;;;;;;;;;-142.75;67.75;78621.97;5050503;28;20395;-74
2021/05/08 01:08:48;;;;;;;;;;;;;;;-142.75;68.95;78586.53;5050217;28;19967;-73
2021/05/08 01:11:13;;;;;;;;;;;;;;;-142.75;69.11;78558.94;5051214;28;19924;-73
2021/05/08 01:13:38;;;;;;;;;;;;;;;-142.75;69.33;78539.25;5050231;28;20446;-74
2021/05/08 01:16:04;;;;;;;;;;;;;;;-142.75;69.11;78523.50;5050974;28;20011;-74
2021/05/08 01:18:31;;;;;;;;;;;;;;;-142.75;68.61;78503.81;5050144;28;19917;-74
2021/05/08 01:20:57;;;;;;;;;;;;;;;-142.75;68.49;78507.75;5049500;28;20345;-74
2021/05/08 01:23:22;;;;;;;;;;;;;;;-142.75;68.48;78490.00;5059797;28;19928;-74
2021/05/08 01:25:47;;;;;;;;;;;;;;;-142.75;68.71;78519.56;5071067;28;19924;-74
2021/05/08 01:28:12;;;;;;;;;;;;;;;-142.75;69.29;78515.63;5058042;28;19917;-73
2021/05/08 01:30:38;;;;;;;;;;;;;;;-142.75;69.27;78511.69;5050919;28;19917;-74
2021/05/08 01:33:04;;;;;;;;;;;;;;;-142.75;68.60;78501.84;5049939;28;19917;-74
2021/05/08 01:35:30;;;;;;;;;;;;;;;-142.75;68.18;78501.84;5066679;28;19916;-72
2021/05/08 01:37:55;;;;;;;;;;;;;;;-142.75;68.67;78507.75;5070930;28;20448;-74
2021/05/08 01:40:28;;;;;;;;;;;;;;;-142.75;68.54;78509.72;5070545;28;19924;-71
2021/05/08 01:42:53;;;;;;;;;;;;;;;-142.75;68.30;78484.09;5069547;28;19921;-74
2021/05/08 01:45:20;;;;;;;;;;;;;;;-142.75;67.72;78478.19;5054752;28;20275;-74
2021/05/08 01:47:45;;;;;;;;;;;;;;;-142.75;67.60;78484.09;5049745;28;19912;-73
2021/05/08 01:50:12;;;;;;;;;;;;;;;-142.75;67.32;78478.19;5069284;28;19934;-73
2021/05/08 01:52:38;;;;;;;;;;;;;;;-142.75;67.35;78476.22;5069213;28;19920;-72
2021/05/08 01:55:08;;;;;;;;;;;;;;;-142.75;66.92;78478.19;5053307;28;19963;-75
2021/05/08 01:57:40;;;;;;;;;;;;;;;-142.75;66.87;78486.06;5061774;28;19921;-73
2021/05/08 02:00:14;;;;;;;;;;;;;;;-142.75;67.04;78490.00;5048106;28;19964;-73
2021/05/08 02:02:39;;;;;;;;;;;;;;;-142.75;66.88;78495.94;5050258;28;19924;-75
2021/05/08 02:05:06;;;;;;;;;;;;;;;-142.75;66.96;78503.81;5050656;28;19916;-74
2021/05/08 02:07:31;;;;;;;;;;;;;;;-142.75;66.73;78497.91;5050706;28;19921;-74
2021/05/08 02:09:56;;;;;;;;;;;;;;;-142.75;66.77;78491.97;5050448;28;19986;-74
2021/05/08 02:12:26;;;;;;;;;;;;;;;-142.75;66.59;78519.56;5051736;28;20043;-73
2021/05/08 02:14:52;;;;;;;;;;;;;;;-142.75;66.91;78519.56;5070376;28;19982;-74
2021/05/08 02:17:17;;;;;;;;;;;;;;;-142.75;66.79;78509.72;5069427;28;20349;-74
2021/05/08 02:19:42;;;;;;;;;;;;;;;-142.75;67.28;78519.56;5052911;28;19920;-74
2021/05/08 02:22:07;;;;;;;;;;;;;;;-142.75;67.30;78519.56;5048721;28;20398;-73
2021/05/08 02:24:32;;;;;;;;;;;;;;;-142.75;67.45;78519.56;5049015;28;19964;-73
2021/05/08 02:26:57;;;;;;;;;;;;;;;-142.75;67.52;78501.84;5069769;28;19916;-74
2021/05/08 02:29:23;;;;;;;;;;;;;;;-142.75;67.19;78484.09;5065008;28;19920;-74
2021/05/08 02:31:48;;;;;;;;;;;;;;;-142.75;67.04;78486.06;5048484;28;19917;-73
2021/05/08 02:34:13;;;;;;;;;;;;;;;-142.75;66.93;78484.09;5048860;28;20301;-73
2021/05/08 02:36:38;;;;;;;;;;;;;;;-142.75;66.82;78472.28;5058356;28;19991;-73
2021/05/08 02:39:03;;;;;;;;;;;;;;;-142.75;67.42;78482.13;5063037;28;19917;-72
2021/05/08 02:41:29;;;;;;;;;;;;;;;-142.75;66.77;78472.28;5069514;28;19920;-74
2021/05/08 02:43:54;;;;;;;;;;;;;;;-142.75;66.55;78468.34;5069915;28;19920;-73
2021/05/08 02:46:19;;;;;;;;;;;;;;;-142.75;66.95;78460.47;5069178;28;19923;-72
2021/05/08 02:48:44;;;;;;;;;;;;;;;-142.75;66.39;78452.59;5066795;28;19981;-73
2021/05/08 02:51:09;;;;;;;;;;;;;;;-142.75;66.19;78446.69;5052884;28;20436;-73
2021/05/08 02:53:35;;;;;;;;;;;;;;;-142.75;66.45;78456.53;5069930;28;19924;-72
2021/05/08 02:56:00;;;;;;;;;;;;;;;-142.75;66.73;78438.81;5069606;28;20007;-74
2021/05/08 02:58:25;;;;;;;;;;;;;;;-142.75;65.84;78434.88;5055360;28;19916;-74
2021/05/08 03:00:50;;;;;;;;;;;;;;;-142.75;65.68;78444.72;5056594;28;20070;-74
2021/05/08 03:03:15;;;;;;;;;;;;;;;-142.75;65.64;78436.84;5069788;28;19916;-73
2021/05/08 03:05:41;;;;;;;;;;;;;;;-142.75;65.79;78444.72;5074774;28;19931;-74
2021/05/08 03:08:06;;;;;;;;;;;;;;;-142.75;65.87;78460.47;5073126;28;19948;-76
2021/05/08 03:10:31;;;;;;;;;;;;;;;-142.75;65.95;78462.44;5054676;28;19920;-73
2021/05/08 03:12:56;;;;;;;;;;;;;;;-142.75;66.57;78468.34;5056272;28;19916;-73
2021/05/08 03:15:22;;;;;;;;;;;;;;;-142.75;66.81;78468.34;5056576;28;19933;-73
2021/05/08 03:17:48;;;;;;;;;;;;;;;-142.75;67.14;78462.44;5056581;28;20339;-72
2021/05/08 03:20:13;;;;;;;;;;;;;;;-142.75;66.05;78460.47;5056091;28;20011;-72
2021/05/08 03:22:38;;;;;;;;;;;;;;;-142.75;66.02;78456.53;5056106;28;19916;-73
2021/05/08 03:25:04;;;;;;;;;;;;;;;-142.75;66.36;78436.84;5071563;28;19924;-73
2021/05/08 03:27:29;;;;;;;;;;;;;;;-142.75;66.13;78425.03;5076130;28;20386;-75
2021/05/08 03:29:54;;;;;;;;;;;;;;;-142.75;65.85;78419.13;5074705;28;19927;-73
2021/05/08 03:32:19;;;;;;;;;;;;;;;-142.75;65.99;78417.16;5075877;28;20015;-75
2021/05/08 03:34:44;;;;;;;;;;;;;;;-142.75;66.17;78413.22;5074757;28;19948;-72
2021/05/08 03:37:10;;;;;;;;;;;;;;;-142.75;65.67;78411.25;5074766;28;19970;-73
2021/05/08 03:39:35;;;;;;;;;;;;;;;-142.75;65.67;78395.47;5074620;28;20392;-73
2021/05/08 03:42:00;;;;;;;;;;;;;;;-142.75;65.62;78383.66;5074378;28;20428;-76
2021/05/08 03:44:25;;;;;;;;;;;;;;;-142.75;65.26;78377.75;5075984;28;19931;-73
2021/05/08 03:46:50;;;;;;;;;;;;;;;-142.75;65.68;78377.75;5076698;28;19943;-73
2021/05/08 03:49:16;;;;;;;;;;;;;;;-142.75;65.43;78377.75;5075993;28;19916;-73
2021/05/08 03:51:41;;;;;;;;;;;;;;;-142.75;65.10;78383.66;5075159;28;19920;-74
2021/05/08 03:54:06;;;;;;;;;;;;;;;-142.75;65.31;78373.81;5063340;28;19994;-73
2021/05/08 03:56:32;;;;;;;;;;;;;;;-142.75;65.26;78403.38;5055800;28;20286;-73
2021/05/08 03:58:57;;;;;;;;;;;;;;;-142.75;64.94;78401.38;5055854;28;20438;-75
2021/05/08 04:01:22;;;;;;;;;;;;;;;-142.75;65.32;78389.56;5054420;28;20504;-73
2021/05/08 04:03:47;;;;;;;;;;;;;;;-142.75;66.09;78395.47;5071383;28;19970;-73
2021/05/08 04:06:13;;;;;;;;;;;;;;;-142.75;65.58;78381.69;5054492;28;19982;-71
2021/05/08 04:08:38;;;;;;;;;;;;;;;-142.75;64.40;78371.84;5055813;28;19917;-73
2021/05/08 04:11:03;;;;;;;;;;;;;;;-142.75;64.16;78350.19;5054082;28;20028;-74
2021/05/08 04:13:28;;;;;;;;;;;;;;;-142.75;64.72;78342.31;5056022;28;19956;-73
2021/05/08 04:15:53;;;;;;;;;;;;;;;-142.75;63.65;78330.50;5053948;28;19960;-73
2021/05/08 04:18:19;;;;;;;;;;;;;;;-142.75;63.70;78322.63;5052662;28;20424;-74
2021/05/08 04:20:47;;;;;;;;;;;;;;;-142.75;63.55;78320.66;5050679;28;19927;-72
2021/05/08 04:23:13;;;;;;;;;;;;;;;-142.75;63.82;78308.84;5052525;28;19917;-72
2021/05/08 04:25:38;;;;;;;;;;;;;;;-142.75;63.03;78299.00;5052488;28;20412;-73
2021/05/08 04:28:03;;;;;;;;;;;;;;;-142.75;62.36;78299.00;5055035;28;19916;-74
2021/05/08 04:30:30;;;;;;;;;;;;;;;-142.75;62.12;78287.16;5071914;28;19986;-72
2021/05/08 04:32:55;;;;;;;;;;;;;;;-142.75;62.23;78287.16;5072269;28;19917;-74
2021/05/08 04:35:21;;;;;;;;;;;;;;;-142.75;62.40;78271.41;5072284;28;20378;-74
2021/05/08 04:37:46;;;;;;;;;;;;;;;-142.75;62.11;78261.56;5072015;28;19916;-73
2021/05/08 04:40:12;;;;;;;;;;;;;;;-142.75;61.33;78265.50;5071689;28;19924;-72
2021/05/08 04:42:37;;;;;;;;;;;;;;;-142.75;61.35;78251.72;5071947;28;19917;-73
2021/05/08 04:45:02;;;;;;;;;;;;;;;-142.75;62.45;78249.75;5072113;28;19923;-73
2021/05/08 04:47:28;;;;;;;;;;;;;;;-142.75;62.90;78243.84;5071607;28;19977;-72
2021/05/08 04:49:57;;;;;;;;;;;;;;;-142.75;62.02;78232.03;5053287;28;20310;-72
2021/05/08 04:52:23;;;;;;;;;;;;;;;-142.75;61.73;78228.09;5051089;28;19916;-74
2021/05/08 04:54:48;;;;;;;;;;;;;;;-142.75;61.04;78224.16;5050567;28;19924;-71
2021/05/08 04:57:13;;;;;;;;;;;;;;;-142.75;61.34;78212.34;5050681;28;19916;-73
2021/05/08 04:59:38;;;;;;;;;;;;;;;-142.75;61.03;78204.47;5051699;28;19927;-73
2021/05/08 05:02:03;;;;;;;;;;;;;;;-142.75;60.57;78192.66;5051577;28;19962;-74
2021/05/08 05:04:29;;;;;;;;;;;;;;;-142.75;60.69;78186.75;5051690;28;19965;-71
2021/05/08 05:06:54;;;;;;;;;;;;;;;-142.75;60.25;78184.78;5051665;28;19920;-73
2021/05/08 05:09:19;;;;;;;;;;;;;;;-142.75;60.75;78178.84;5050326;28;19921;-72
2021/05/08 05:11:44;;;;;;;;;;;;;;;-142.75;61.06;78172.94;5051364;28;19917;-74
2021/05/08 05:14:09;;;;;;;;;;;;;;;-142.75;60.20;78169.00;5051588;28;19924;-73
2021/05/08 05:16:35;;;;;;;;;;;;;;;-142.75;60.97;78149.31;5052192;28;19939;-74
2021/05/08 05:19:00;;;;;;;;;;;;;;;-142.75;61.03;78149.31;5051482;28;20302;-74
2021/05/08 05:21:25;;;;;;;;;;;;;;;-142.75;60.37;78131.59;5051012;28;20031;-73
2021/05/08 05:23:50;;;;;;;;;;;;;;;-142.75;60.66;78117.81;5061169;28;19924;-72
2021/05/08 05:26:15;;;;;;;;;;;;;;;-142.75;59.81;78106.00;5069799;28;19917;-73
2021/05/08 05:28:41;;;;;;;;;;;;;;;-142.75;60.58;78092.22;5071120;28;20014;-72
2021/05/08 05:31:06;;;;;;;;;;;;;;;-142.75;59.77;78074.50;5069501;28;19955;-73
2021/05/08 05:33:31;;;;;;;;;;;;;;;-142.75;60.04;78066.63;5071157;28;20059;-73
2021/05/08 05:35:56;;;;;;;;;;;;;;;-142.75;59.19;78052.81;5069250;28;20282;-71
2021/05/08 05:38:22;;;;;;;;;;;;;;;-142.75;58.82;78064.66;5070240;28;19920;-72
2021/05/08 05:40:48;;;;;;;;;;;;;;;-142.75;59.26;78058.72;5069188;28;19921;-72
2021/05/08 05:43:13;;;;;;;;;;;;;;;-142.75;58.87;78062.69;5050465;28;20275;-73
2021/05/08 05:45:38;;;;;;;;;;;;;;;-142.75;58.21;78052.81;5057455;28;19917;-73
2021/05/08 05:48:04;;;;;;;;;;;;;;;-142.75;59.02;78046.91;5060638;28;19963;-72
2021/05/08 05:50:31;;;;;;;;;;;;;;;-142.75;59.19;78054.81;5049533;28;19917;-73
2021/05/08 05:52:56;;;;;;;;;;;;;;;-142.75;58.94;78042.97;5048974;28;19917;-74
2021/05/08 05:55:22;;;;;;;;;;;;;;;-142.75;59.23;78039.03;5066590;28;19920;-74
2021/05/08 05:57:48;;;;;;;;;;;;;;;-142.75;59.41;78031.16;5069950;28;19924;-74
2021/05/08 06:00:14;;;;;;;;;;;;;;;-142.75;60.22;78025.25;5086866;23;20203;-76
2021/05/08 06:02:39;;;;;;;;;;;;;;;-142.75;60.67;78019.34;5087045;28;19924;-77
2021/05/08 06:05:04;;;;;;;;;;;;;;;-142.75;59.97;78011.47;5083223;28;19923;-76
2021/05/08 06:07:29;;;;;;;;;;;;;;;-142.75;60.66;78009.50;5052581;28;19916;-77
2021/05/08 06:09:54;;;;;;;;;;;;;;;-142.75;60.47;77995.72;5089929;28;19970;-75
2021/05/08 06:12:20;;;;;;;;;;;;;;;-142.75;59.53;78001.63;5090152;28;19924;-76
2021/05/08 06:14:45;;;;;;;;;;;;;;;-142.75;60.63;77989.81;5071287;28;20011;-75
2021/05/08 06:17:10;;;;;;;;;;;;;;;-142.75;60.32;77983.91;5071162;28;20394;-77
2021/05/08 06:19:35;;;;;;;;;;;;;;;-142.75;59.54;77976.03;5070276;28;20011;-75
2021/05/08 06:22:00;;;;;;;;;;;;;;;-142.75;59.96;77978.00;5081520;28;19916;-75
2021/05/08 06:24:25;;;;;;;;;;;;;;;-142.75;60.35;77972.09;5062242;28;20436;-76
2021/05/08 06:26:51;;;;;;;;;;;;;;;-142.75;60.30;77970.13;5087105;28;19928;-76
2021/05/08 06:29:16;;;;;;;;;;;;;;;-142.75;60.75;77958.31;5058794;28;19978;-76
2021/05/08 06:31:41;;;;;;;;;;;;;;;-142.75;60.37;77952.41;5077646;28;19920;-75
2021/05/08 06:34:06;;;;;;;;;;;;;;;-142.75;60.48;77934.69;5091038;28;19916;-77
2021/05/08 06:36:32;;;;;;;;;;;;;;;-142.75;59.96;77928.78;5085176;28;19920;-78
2021/05/08 06:38:57;;;;;;;;;;;;;;;-142.75;59.88;77918.94;5052587;28;19924;-77
2021/05/08 06:41:22;;;;;;;;;;;;;;;-142.75;60.30;77911.06;5070132;28;20398;-77
2021/05/08 06:43:47;;;;;;;;;;;;;;;-142.75;59.10;77901.19;5071117;28;19967;-76
2021/05/08 06:46:13;;;;;;;;;;;;;;;-142.75;59.20;77871.66;5090830;28;19916;-76
2021/05/08 06:48:38;;;;;;;;;;;;;;;-142.75;58.57;77857.88;5078057;28;19916;-77
2021/05/08 06:51:05;;;;;;;;;;;;;;;-142.75;58.55;77861.81;5069329;28;19916;-76
2021/05/08 06:53:30;;;;;;;;;;;;;;;-142.75;59.05;77830.31;5053421;28;20046;-76
2021/05/08 06:55:56;;;;;;;;;;;;;;;-142.75;56.55;77802.75;5089217;28;19981;-76
2021/05/08 06:58:21;;;;;;;;;;;;;;;-142.75;56.21;77806.69;5088488;28;19927;-76
2021/05/08 07:00:46;;;;;;;;;;;;;;;-142.75;55.98;77777.16;5088059;28;19924;-76
2021/05/08 07:03:11;;;;;;;;;;;;;;;-142.75;56.38;77767.31;5088926;28;20487;-76
2021/05/08 07:05:36;;;;;;;;;;;;;;;-142.75;54.63;77771.25;5088641;28;20397;-75
2021/05/08 07:08:02;;;;;;;;;;;;;;;-142.75;54.86;77771.25;5088601;28;20022;-76
2021/05/08 07:10:28;;;;;;;;;;;;;;;-142.75;55.23;77765.34;5070102;28;19924;-76
2021/05/08 07:12:53;;;;;;;;;;;;;;;-142.75;54.79;77753.53;5088302;28;20393;-76
2021/05/08 07:15:19;;;;;;;;;;;;;;;-142.75;54.57;77755.50;5072314;28;19921;-76
2021/05/08 07:17:44;;;;;;;;;;;;;;;-142.75;54.40;77749.59;5069466;28;20362;-76
2021/05/08 07:20:09;;;;;;;;;;;;;;;-142.75;54.93;77753.53;5068152;28;19974;-76
2021/05/08 07:22:34;;;;;;;;;;;;;;;-142.75;54.36;77729.88;5050066;28;19931;-77
2021/05/08 07:25:00;;;;;;;;;;;;;;;-142.75;54.66;77727.94;5050339;28;19995;-77
2021/05/08 07:27:25;;;;;;;;;;;;;;;-142.75;54.01;77722.00;5069739;28;19917;-76
2021/05/08 07:29:50;;;;;;;;;;;;;;;-142.75;54.48;77704.28;5069883;28;19974;-76
2021/05/08 07:32:15;;;;;;;;;;;;;;;-142.75;54.47;77704.28;5080007;28;20339;-76
2021/05/08 07:34:40;;;;;;;;;;;;;;;-142.75;53.72;77704.28;5084127;28;19917;-77
2021/05/08 07:37:06;;;;;;;;;;;;;;;-142.75;53.79;77672.78;5063061;28;22585;-76
2021/05/08 07:39:31;;;;;;;;;;;;;;;-142.75;53.28;77657.03;5079743;28;19920;-75
2021/05/08 07:41:56;;;;;;;;;;;;;;;-142.75;53.28;77653.09;5088543;28;19923;-76
2021/05/08 07:44:21;;;;;;;;;;;;;;;-142.75;53.16;77643.25;5088712;28;19920;-74
2021/05/08 07:46:46;;;;;;;;;;;;;;;-142.75;53.87;77645.22;5071586;28;19962;-76
2021/05/08 07:49:11;;;;;;;;;;;;;;;-142.75;53.13;77623.56;5059990;28;19955;-75
2021/05/08 07:51:37;;;;;;;;;;;;;;;-142.75;52.49;77617.66;5052210;28;20298;-77
2021/05/08 07:54:02;;;;;;;;;;;;;;;-142.75;52.70;77597.97;5072580;28;20590;-76
2021/05/08 07:56:28;;;;;;;;;;;;;;;-142.75;53.02;77566.47;5073298;28;19923;-77
2021/05/08 07:58:53;;;;;;;;;;;;;;;-142.75;50.94;77572.38;5086824;28;19963;-75
2021/05/08 08:01:18;;;;;;;;;;;;;;;-142.75;51.41;77558.59;5072602;28;20383;-77
2021/05/08 08:03:43;;;;;;;;;;;;;;;-142.75;51.53;77568.44;5092853;28;19916;-77
2021/05/08 08:06:09;;;;;;;;;;;;;;;-142.75;51.38;77546.78;5092666;28;19916;-76
2021/05/08 08:08:34;;;;;;;;;;;;;;;-142.75;51.23;77538.91;5074327;28;19951;-77
2021/05/08 08:10:59;;;;;;;;;;;;;;;-142.75;50.75;77515.28;5091974;28;19924;-75
2021/05/08 08:13:25;;;;;;;;;;;;;;;-142.75;49.83;77519.22;5073862;28;20289;-75
2021/05/08 08:15:50;;;;;;;;;;;;;;;-142.75;50.17;77497.56;5074175;28;20385;-76
2021/05/08 08:18:15;;;;;;;;;;;;;;;-142.75;50.00;77456.22;5071650;28;20432;-76
2021/05/08 08:20:40;;;;;;;;;;;;;;;-142.75;49.92;77436.50;5084538;28;19973;-76
2021/05/08 08:23:06;;;;;;;;;;;;;;;-142.75;49.69;77410.91;5080750;28;20389;-75
2021/05/08 08:25:31;;;;;;;;;;;;;;;-142.75;49.19;77406.97;5072120;28;20018;-78
2021/05/08 08:27:56;;;;;;;;;;;;;;;-142.75;49.00;77359.72;5053856;28;19963;-75
2021/05/08 08:30:21;;;;;;;;;;;;;;;-142.75;47.77;77353.81;5053669;28;19916;-75
2021/05/08 08:32:47;;;;;;;;;;;;;;;-142.75;49.11;77365.63;5071672;28;20332;-75
2021/05/08 08:35:12;;;;;;;;;;;;;;;-142.75;49.07;77338.06;5054365;28;19923;-78
2021/05/08 08:37:37;;;;;;;;;;;;;;;-142.75;48.07;77316.41;5072458;28;20402;-76
2021/05/08 08:40:03;;;;;;;;;;;;;;;-142.75;47.77;77340.03;5055073;28;20019;-76
2021/05/08 08:42:28;;;;;;;;;;;;;;;-142.75;47.21;77298.69;5076425;28;19951;-76
2021/05/08 08:44:55;;;;;;;;;;;;;;;-142.75;47.56;77282.94;5074934;28;19924;-76
2021/05/08 08:47:30;;;;;;;;;;;;;;;-142.75;47.63;77284.91;5093483;28;19916;-77
2021/05/08 08:49:57;;;;;;;;;;;;;;;-142.75;47.28;77269.16;5074422;28;19916;-76
2021/05/08 08:52:22;;;;;;;;;;;;;;;-142.75;45.87;77279.00;5088499;28;19924;-75
2021/05/08 08:54:47;;;;;;;;;;;;;;;-142.75;47.01;77273.09;5069455;28;19923;-77
2021/05/08 08:57:13;;;;;;;;;;;;;;;-142.75;46.20;77269.16;5054655;28;19916;-75
2021/05/08 08:59:38;;;;;;;;;;;;;;;-142.75;46.50;77294.75;5054617;28;20019;-76
2021/05/08 09:02:03;;;;;;;;;;;;;;;-142.75;47.58;77288.84;5071766;28;19951;-76
2021/05/08 09:04:28;;;;;;;;;;;;;;;-142.75;48.36;77277.03;5072440;28;19916;-75
2021/05/08 09:06:54;;;;;;;;;;;;;;;-142.75;48.94;77275.06;5072451;28;19921;-77
2021/05/08 09:09:19;;;;;;;;;;;;;;;-142.75;48.99;77279.00;5072444;28;20011;-75
2021/05/08 09:11:53;;;;;;;;;;;;;;;-142.75;49.27;77265.22;5071893;28;20382;-76
2021/05/08 09:14:18;;;;;;;;;;;;;;;-142.75;50.46;77275.06;5072301;28;19916;-76
2021/05/08 09:17:02;;;;;;;;;;;;;;;-142.75;47.90;77292.78;5072938;28;19923;-76
2021/05/08 09:19:27;;;;;;;;;;;;;;;-142.75;49.31;77290.81;5054216;28;19920;-76
2021/05/08 09:21:52;;;;;;;;;;;;;;;-142.75;52.16;77282.94;5071940;28;19916;-76
2021/05/08 09:24:17;;;;;;;;;;;;;;;-142.75;51.16;77277.03;5085105;28;19931;-76
2021/05/08 09:26:48;;;;;;;;;;;;;;;-142.75;50.32;77279.00;5092464;28;20426;-77
2021/05/08 09:29:18;;;;;;;;;;;;;;;-142.75;50.57;77282.94;5077491;28;19950;-76
2021/05/08 09:31:59;;;;;;;;;;;;;;;-142.75;50.50;77284.91;5071500;28;19917;-75
2021/05/08 09:34:25;;;;;;;;;;;;;;;-142.75;52.53;77273.09;5071886;28;19916;-76
2021/05/08 09:36:50;;;;;;;;;;;;;;;-142.75;50.91;77267.19;5072048;28;20302;-74
2021/05/08 09:39:27;;;;;;;;;;;;;;;-142.75;52.72;77271.13;5071688;28;19932;-76
2021/05/08 09:41:52;;;;;;;;;;;;;;;-142.75;53.66;77269.16;5052904;28;20442;-76
2021/05/08 09:44:17;;;;;;;;;;;;;;;-142.75;51.65;77294.75;5070783;28;20011;-75
2021/05/08 09:46:43;;;;;;;;;;;;;;;-142.75;54.01;77290.81;5081115;28;19923;-78
2021/05/08 09:49:12;;;;;;;;;;;;;;;-142.75;53.03;77282.94;5076567;28;19916;-78
2021/05/08 09:51:37;;;;;;;;;;;;;;;-142.75;54.61;77320.34;5061191;28;19904;-80
2021/05/08 09:54:02;;;;;;;;;;;;;;;-142.75;53.50;77330.19;5084276;28;20415;-81
2021/05/08 09:56:32;;;;;;;;;;;;;;;-142.75;54.57;77353.81;5071673;28;19950;-78
2021/05/08 09:59:17;;;;;;;;;;;;;;;-142.75;55.76;77343.97;5095382;28;20324;-78
2021/05/08 10:01:42;;;;;;;;;;;;;;;-142.75;55.74;77357.75;5068972;28;19967;-79
2021/05/08 10:04:25;;;;;;;;;;;;;;;-142.75;57.91;77371.53;5085414;28;19923;-79
2021/05/08 10:07:03;;;;;;;;;;;;;;;-142.75;57.20;77369.56;5062175;28;19970;-79
2021/05/08 10:09:29;;;;;;;;;;;;;;;-142.75;58.60;77373.50;5087991;28;19917;-78
2021/05/08 10:11:54;;;;;;;;;;;;;;;-142.75;57.79;77391.22;5076743;28;20379;-77
2021/05/08 10:14:19;;;;;;;;;;;;;;;-142.75;59.17;77389.25;5064153;28;19916;-79
2021/05/08 10:16:44;;;;;;;;;;;;;;;-142.75;60.19;77408.94;5074036;28;19926;-79
2021/05/08 10:19:10;;;;;;;;;;;;;;;-142.75;60.00;77424.69;5076564;28;19916;-78
2021/05/08 10:21:35;;;;;;;;;;;;;;;-142.75;60.56;77420.75;5088250;28;19921;-79
2021/05/08 10:24:01;;;;;;;;;;;;;;;-142.75;60.38;77430.59;5082195;28;19916;-80
2021/05/08 10:26:26;;;;;;;;;;;;;;;-142.75;60.75;77414.84;5088458;28;19954;-80
2021/05/08 10:28:52;;;;;;;;;;;;;;;-142.75;60.45;77434.53;5095993;28;19955;-79
2021/05/08 10:31:17;;;;;;;;;;;;;;;-142.75;61.70;77424.69;5093887;28;19916;-79
2021/05/08 10:33:44;;;;;;;;;;;;;;;-142.75;62.17;77420.75;5084207;28;19916;-80
2021/05/08 10:36:09;;;;;;;;;;;;;;;-142.75;61.70;77424.69;5067766;28;19923;-82
2021/05/08 10:38:35;;;;;;;;;;;;;;;-142.75;62.05;77406.97;5088091;28;19924;-81
2021/05/08 10:41:02;;;;;;;;;;;;;;;-142.75;61.93;77405.00;5081751;28;19920;-79
2021/05/08 10:43:39;;;;;;;;;;;;;;;-142.75;62.08;77381.38;5090765;28;19962;-81
2021/05/08 10:46:04;;;;;;;;;;;;;;;-142.75;62.28;77389.25;5083232;28;19955;-80
2021/05/08 10:48:30;;;;;;;;;;;;;;;-142.75;62.79;77373.50;5085470;28;20484;-80
2021/05/08 10:50:58;;;;;;;;;;;;;;;-142.75;62.16;77381.38;5070671;28;19917;-81
2021/05/08 10:53:56;;;;;;;;;;;;;;;-142.75;61.67;77393.19;5089557;28;19916;-82
2021/05/08 10:56:31;;;;;;;;;;;;;;;-142.75;63.26;77397.13;5017926;28;19959;-82
2021/05/08 10:59:03;;;;;;;;;;;;;;;-142.75;63.28;77399.09;5081547;28;19916;-81
2021/05/08 11:01:43;;;;;;;;;;;;;;;-142.75;64.20;77401.06;5085616;28;19921;-81
2021/05/08 11:04:08;;;;;;;;;;;;;;;-142.75;63.57;77416.81;5090078;28;20374;-82
2021/05/08 11:06:34;;;;;;;;;;;;;;;-142.75;63.55;77406.97;5066778;28;19916;-78
2021/05/08 11:08:59;;;;;;;;;;;;;;;-142.75;63.54;77406.97;5082889;28;19923;-80
2021/05/08 11:11:43;;;;;;;;;;;;;;;-142.75;63.14;77399.09;5086059;28;19919;-81
2021/05/08 11:14:08;;;;;;;;;;;;;;;-142.75;63.67;77393.19;5072648;28;19949;-81
2021/05/08 11:16:33;;;;;;;;;;;;;;;-142.75;64.57;77389.25;5065401;28;20397;-78
2021/05/08 11:19:00;;;;;;;;;;;;;;;-142.75;64.30;77377.44;5071240;28;19985;-78
2021/05/08 11:21:29;;;;;;;;;;;;;;;-142.75;64.84;77395.16;5086450;28;19928;-81
2021/05/08 11:24:01;;;;;;;;;;;;;;;-142.75;64.74;77389.25;5084808;28;20384;-81
2021/05/08 11:26:28;;;;;;;;;;;;;;;-142.75;66.13;77379.41;5074410;28;19916;-81
2021/05/08 11:29:02;;;;;;;;;;;;;;;-142.75;65.65;77385.31;5090671;28;19916;-83
2021/05/08 11:31:34;;;;;;;;;;;;;;;-142.75;66.16;77379.41;5088826;28;19943;-81
2021/05/08 11:34:14;;;;;;;;;;;;;;;-142.75;65.86;77373.50;5066485;28;19956;-81
2021/05/08 11:36:50;;;;;;;;;;;;;;;-142.75;66.43;77365.63;5079747;28;20437;-80
2021/05/08 11:39:25;;;;;;;;;;;;;;;-142.75;65.25;77367.59;5065416;28;19944;-80
2021/05/08 11:41:53;;;;;;;;;;;;;;;-142.75;66.00;77353.81;5061865;28;19970;-80
2021/05/08 11:44:21;;;;;;;;;;;;;;;-142.75;66.24;77357.75;5082051;28;20283;-79
2021/05/08 11:46:50;;;;;;;;;;;;;;;-142.75;65.87;77353.81;5088731;28;19916;-79
2021/05/08 11:49:22;;;;;;;;;;;;;;;-142.75;65.86;77343.97;5080859;28;19924;-79
2021/05/08 11:51:47;;;;;;;;;;;;;;;-142.75;66.79;77338.06;5061530;28;20381;-81
2021/05/08 11:54:13;;;;;;;;;;;;;;;-142.75;66.66;77340.03;5077910;28;19916;-78
2021/05/08 11:56:39;;;;;;;;;;;;;;;-142.75;66.70;77342.00;5074859;28;19975;-78
2021/05/08 11:59:06;;;;;;;;;;;;;;;-142.75;66.47;77324.28;5081271;28;19928;-78
2021/05/08 12:01:32;;;;;;;;;;;;;;;-142.75;66.76;77310.50;5102524;23;20026;-83
2021/05/08 12:03:58;;;;;;;;;;;;;;;-142.75;66.03;77296.72;5094832;28;20404;-83
2021/05/08 12:06:25;;;;;;;;;;;;;;;-142.75;66.11;77294.75;5108522;28;20387;-81
2021/05/08 12:08:50;;;;;;;;;;;;;;;-142.75;66.63;77308.53;5089635;28;19938;-84
2021/05/08 12:11:16;;;;;;;;;;;;;;;-142.75;66.50;77302.63;5109591;28;19924;-83
2021/05/08 12:13:42;;;;;;;;;;;;;;;-142.75;66.09;77294.75;5114648;28;19924;-83
2021/05/08 12:16:07;;;;;;;;;;;;;;;-142.75;66.51;77290.81;5089106;28;19919;-83
2021/05/08 12:18:33;;;;;;;;;;;;;;;-142.75;66.53;77286.88;5087775;28;20430;-83
2021/05/08 12:20:59;;;;;;;;;;;;;;;-142.75;66.70;77302.63;5109864;28;19920;-81
2021/05/08 12:23:25;;;;;;;;;;;;;;;-142.75;66.80;77288.84;5107623;28;19982;-82